Time;durP1;ratioP1;P1;durP2;ratioP2;P2;SDS_P1;SDS_P2;PMS_P1;PMS_P2;Temp;Humidity;BMP_temperature;BMP_pressure;BME280_temperature;BME280_humidity;BME280_pressure;Samples;Min_cycle;Max_cycle;Signal;HPM_P1;HPM_P2
2022/03/07 00:00:53;;;;;;;;;;;17.40;52.40;;;;;;5006866;28;19910;-68
2022/03/07 00:03:18;;;;;;;;;;;17.40;52.40;;;;;;5025406;28;20390;-70
2022/03/07 00:05:44;;;;;;;;;;;17.40;52.30;;;;;;5006589;28;19999;-68
2022/03/07 00:08:09;;;;;;;;;;;17.50;52.10;;;;;;5017623;28;19916;-68
2022/03/07 00:10:35;;;;;;;;;;;17.50;52.00;;;;;;5021602;28;20453;-68
2022/03/07 00:13:00;;;;;;;;;;;17.50;52.00;;;;;;5013284;28;19909;-69
2022/03/07 00:15:26;;;;;;;;;;;17.50;52.10;;;;;;5018271;28;19929;-69
2022/03/07 00:17:51;;;;;;;;;;;17.50;52.00;;;;;;5006975;28;19932;-64
2022/03/07 00:20:17;;;;;;;;;;;17.50;51.90;;;;;;5017948;28;19917;-68
2022/03/07 00:22:42;;;;;;;;;;;17.50;51.90;;;;;;5012857;28;19955;-66
2022/03/07 00:25:08;;;;;;;;;;;17.50;51.80;;;;;;4993486;28;20297;-69
2022/03/07 00:27:33;;;;;;;;;;;17.50;51.70;;;;;;5016670;28;19913;-70
2022/03/07 00:29:59;;;;;;;;;;;17.50;51.70;;;;;;5016215;28;20639;-68
2022/03/07 00:32:24;;;;;;;;;;;17.50;51.70;;;;;;5014786;28;19959;-68
2022/03/07 00:34:50;;;;;;;;;;;17.50;51.70;;;;;;5011545;28;19959;-66
2022/03/07 00:37:15;;;;;;;;;;;17.60;51.70;;;;;;5022993;28;19925;-66
2022/03/07 00:39:41;;;;;;;;;;;17.50;51.70;;;;;;5022500;28;19917;-67
2022/03/07 00:42:06;;;;;;;;;;;17.50;51.70;;;;;;5019355;28;19910;-68
2022/03/07 00:44:32;;;;;;;;;;;17.50;51.70;;;;;;5021327;28;20000;-68
2022/03/07 00:46:57;;;;;;;;;;;17.60;51.60;;;;;;5010407;28;20582;-69
2022/03/07 00:49:22;;;;;;;;;;;17.60;51.40;;;;;;5016173;28;19909;-67
2022/03/07 00:51:48;;;;;;;;;;;17.40;51.50;;;;;;5014502;28;19916;-69
2022/03/07 00:54:13;;;;;;;;;;;17.50;51.60;;;;;;5018494;28;20885;-67
2022/03/07 00:56:39;;;;;;;;;;;17.50;51.60;;;;;;5016429;28;19982;-67
2022/03/07 00:59:05;;;;;;;;;;;17.50;51.50;;;;;;5016691;28;20400;-67
2022/03/07 01:01:30;;;;;;;;;;;17.40;51.50;;;;;;5025519;28;19982;-68
2022/03/07 01:03:56;;;;;;;;;;;17.40;51.40;;;;;;5012402;28;20495;-68
2022/03/07 01:06:22;;;;;;;;;;;17.50;51.40;;;;;;5010424;28;19910;-68
2022/03/07 01:08:47;;;;;;;;;;;17.50;51.30;;;;;;5018422;28;20016;-67
2022/03/07 01:11:13;;;;;;;;;;;17.50;51.30;;;;;;5019564;28;20034;-69
2022/03/07 01:13:38;;;;;;;;;;;17.50;51.30;;;;;;5005824;28;19917;-68
2022/03/07 01:16:03;;;;;;;;;;;17.50;51.20;;;;;;5012639;28;19962;-67
2022/03/07 01:18:29;;;;;;;;;;;17.50;51.20;;;;;;5008523;28;19914;-68
2022/03/07 01:20:54;;;;;;;;;;;17.50;51.10;;;;;;5022803;28;20424;-68
2022/03/07 01:23:20;;;;;;;;;;;17.50;51.10;;;;;;5012453;28;19909;-69
2022/03/07 01:25:45;;;;;;;;;;;17.50;51.20;;;;;;5016230;28;19916;-66
2022/03/07 01:28:11;;;;;;;;;;;17.40;51.30;;;;;;4990005;28;19913;-65
2022/03/07 01:30:36;;;;;;;;;;;17.50;51.20;;;;;;5014908;28;19913;-68
2022/03/07 01:33:02;;;;;;;;;;;17.50;51.10;;;;;;5016552;28;19924;-68
2022/03/07 01:35:27;;;;;;;;;;;17.50;51.20;;;;;;5020589;28;20036;-69
2022/03/07 01:37:52;;;;;;;;;;;17.40;51.20;;;;;;5018242;28;19909;-69
2022/03/07 01:40:18;;;;;;;;;;;17.50;51.20;;;;;;5020931;28;19963;-66
2022/03/07 01:42:43;;;;;;;;;;;17.40;51.30;;;;;;5018986;28;20383;-69
2022/03/07 01:45:09;;;;;;;;;;;17.40;51.30;;;;;;5020815;28;19914;-68
2022/03/07 01:47:35;;;;;;;;;;;17.30;51.30;;;;;;5015291;28;20000;-67
2022/03/07 01:50:00;;;;;;;;;;;17.40;51.30;;;;;;5011229;28;19909;-67
2022/03/07 01:52:26;;;;;;;;;;;17.40;51.30;;;;;;5014419;28;19932;-69
2022/03/07 01:54:51;;;;;;;;;;;17.40;51.30;;;;;;5006693;28;20000;-67
2022/03/07 01:57:17;;;;;;;;;;;17.40;51.30;;;;;;5007424;28;19921;-67
2022/03/07 01:59:42;;;;;;;;;;;17.40;51.20;;;;;;4987869;28;19914;-68
2022/03/07 02:02:08;;;;;;;;;;;17.40;51.20;;;;;;5017406;28;20003;-68
2022/03/07 02:04:33;;;;;;;;;;;17.40;51.20;;;;;;5016413;28;19955;-68
2022/03/07 02:06:59;;;;;;;;;;;17.30;51.40;;;;;;5011368;28;19921;-65
2022/03/07 02:09:24;;;;;;;;;;;17.30;51.40;;;;;;5002383;28;19921;-70
2022/03/07 02:11:50;;;;;;;;;;;17.20;51.40;;;;;;5021338;28;19916;-68
2022/03/07 02:14:19;;;;;;;;;;;17.20;51.50;;;;;;5024133;28;19948;-67
2022/03/07 02:16:45;;;;;;;;;;;17.10;51.40;;;;;;4996443;28;19909;-67
2022/03/07 02:19:12;;;;;;;;;;;17.20;51.20;;;;;;5009600;28;19917;-66
2022/03/07 02:21:39;;;;;;;;;;;17.20;51.00;;;;;;5012157;28;19917;-68
2022/03/07 02:24:05;;;;;;;;;;;17.20;50.90;;;;;;4987038;28;19909;-69
2022/03/07 02:26:30;;;;;;;;;;;17.10;50.90;;;;;;5013104;28;20001;-66
2022/03/07 02:28:56;;;;;;;;;;;17.10;51.00;;;;;;5010570;28;19960;-67
2022/03/07 02:31:21;;;;;;;;;;;17.00;51.10;;;;;;5015711;28;19915;-68
2022/03/07 02:33:47;;;;;;;;;;;17.00;51.20;;;;;;5015094;28;19972;-64
2022/03/07 02:36:13;;;;;;;;;;;16.90;51.60;;;;;;5014958;28;20391;-68
2022/03/07 02:38:38;;;;;;;;;;;16.80;51.90;;;;;;4998148;28;19987;-67
2022/03/07 02:41:03;;;;;;;;;;;16.80;52.20;;;;;;5012782;28;19928;-67
2022/03/07 02:43:29;;;;;;;;;;;16.80;51.80;;;;;;5008584;28;19917;-66
2022/03/07 02:45:57;;;;;;;;;;;16.90;51.60;;;;;;5024215;28;19909;-67
2022/03/07 02:48:22;;;;;;;;;;;16.90;51.40;;;;;;5004443;28;19913;-65
2022/03/07 02:50:48;;;;;;;;;;;17.00;51.40;;;;;;5021327;28;19916;-69
2022/03/07 02:53:13;;;;;;;;;;;16.90;51.70;;;;;;5003583;28;19913;-69
2022/03/07 02:55:39;;;;;;;;;;;17.10;51.50;;;;;;5011868;28;19916;-68
2022/03/07 02:58:04;;;;;;;;;;;17.20;51.30;;;;;;5017021;28;19909;-68
2022/03/07 03:00:30;;;;;;;;;;;17.20;51.00;;;;;;5012681;28;20609;-68
2022/03/07 03:02:55;;;;;;;;;;;17.30;50.80;;;;;;5011123;28;20043;-68
2022/03/07 03:05:21;;;;;;;;;;;17.30;50.80;;;;;;5020509;28;20000;-70
2022/03/07 03:07:47;;;;;;;;;;;17.40;50.70;;;;;;5012446;28;20351;-68
2022/03/07 03:10:12;;;;;;;;;;;17.40;50.50;;;;;;5004181;28;19917;-67
2022/03/07 03:12:38;;;;;;;;;;;17.40;50.50;;;;;;5009710;28;20376;-68
2022/03/07 03:15:03;;;;;;;;;;;17.40;50.40;;;;;;5003489;28;19928;-68
2022/03/07 03:17:29;;;;;;;;;;;17.50;50.20;;;;;;5007702;28;20443;-68
2022/03/07 03:19:54;;;;;;;;;;;17.40;50.20;;;;;;5003742;28;19939;-68
2022/03/07 03:22:20;;;;;;;;;;;17.40;50.30;;;;;;5015616;28;19909;-68
2022/03/07 03:24:46;;;;;;;;;;;17.40;50.30;;;;;;5017014;28;20438;-68
2022/03/07 03:27:11;;;;;;;;;;;17.50;50.30;;;;;;5016657;28;19913;-67
2022/03/07 03:29:37;;;;;;;;;;;17.50;50.40;;;;;;5007412;28;20445;-65
2022/03/07 03:32:02;;;;;;;;;;;17.40;50.30;;;;;;5022831;28;19913;-68
2022/03/07 03:34:27;;;;;;;;;;;17.50;50.10;;;;;;4995160;28;20000;-67
2022/03/07 03:36:53;;;;;;;;;;;17.50;50.10;;;;;;5021853;28;19913;-68
2022/03/07 03:39:18;;;;;;;;;;;17.50;50.10;;;;;;5025257;28;20376;-67
2022/03/07 03:41:44;;;;;;;;;;;17.40;50.10;;;;;;5019183;28;19919;-69
2022/03/07 03:44:09;;;;;;;;;;;17.50;50.00;;;;;;5018463;28;19909;-69
2022/03/07 03:46:35;;;;;;;;;;;17.50;50.00;;;;;;5014084;28;19931;-68
2022/03/07 03:49:01;;;;;;;;;;;17.50;50.00;;;;;;5010594;28;19917;-68
2022/03/07 03:51:26;;;;;;;;;;;17.40;49.90;;;;;;5026196;28;19909;-68
2022/03/07 03:53:52;;;;;;;;;;;17.50;50.00;;;;;;5014452;28;19909;-67
2022/03/07 03:56:17;;;;;;;;;;;17.50;49.90;;;;;;5026814;28;20431;-66
2022/03/07 03:58:43;;;;;;;;;;;17.40;49.90;;;;;;5012688;28;19913;-65
2022/03/07 04:01:08;;;;;;;;;;;17.50;49.80;;;;;;5009051;28;19916;-68
2022/03/07 04:03:33;;;;;;;;;;;17.50;49.80;;;;;;5014975;28;20395;-65
2022/03/07 04:05:59;;;;;;;;;;;17.50;49.80;;;;;;5012690;28;19921;-70
2022/03/07 04:08:24;;;;;;;;;;;17.50;49.50;;;;;;4990468;28;19909;-64
2022/03/07 04:10:50;;;;;;;;;;;17.50;49.50;;;;;;5011019;28;19925;-69
2022/03/07 04:13:15;;;;;;;;;;;17.50;49.50;;;;;;5006104;28;20595;-67
2022/03/07 04:15:41;;;;;;;;;;;17.60;49.40;;;;;;5019419;28;19917;-67
2022/03/07 04:18:06;;;;;;;;;;;17.60;49.30;;;;;;5010557;28;19917;-67
2022/03/07 04:20:32;;;;;;;;;;;17.60;49.30;;;;;;5004957;28;19913;-66
2022/03/07 04:22:58;;;;;;;;;;;17.60;49.50;;;;;;5008120;28;19967;-67
2022/03/07 04:25:24;;;;;;;;;;;17.50;49.40;;;;;;5010466;28;20003;-68
2022/03/07 04:27:49;;;;;;;;;;;17.60;49.50;;;;;;5015948;28;19914;-68
2022/03/07 04:30:14;;;;;;;;;;;17.50;49.50;;;;;;5008539;28;19913;-68
2022/03/07 04:32:40;;;;;;;;;;;17.60;49.50;;;;;;5004165;28;19917;-67
2022/03/07 04:35:06;;;;;;;;;;;17.60;49.40;;;;;;5004335;28;19967;-67
2022/03/07 04:37:32;;;;;;;;;;;17.60;49.40;;;;;;5009336;28;19927;-67
2022/03/07 04:39:58;;;;;;;;;;;17.60;49.40;;;;;;5019134;28;20295;-67
2022/03/07 04:42:24;;;;;;;;;;;17.60;49.40;;;;;;5006375;28;19914;-66
2022/03/07 04:44:49;;;;;;;;;;;17.60;49.40;;;;;;5016381;28;19920;-68
2022/03/07 04:47:15;;;;;;;;;;;17.70;49.20;;;;;;5003917;28;20309;-69
2022/03/07 04:49:40;;;;;;;;;;;17.60;49.30;;;;;;5008574;28;19924;-69
2022/03/07 04:52:06;;;;;;;;;;;17.60;49.40;;;;;;5015633;28;19917;-68
2022/03/07 04:54:31;;;;;;;;;;;17.50;49.40;;;;;;5016659;28;19917;-69
2022/03/07 04:56:56;;;;;;;;;;;17.70;49.30;;;;;;5010540;28;20630;-68
2022/03/07 04:59:22;;;;;;;;;;;17.70;49.20;;;;;;5002112;28;19961;-62
2022/03/07 05:01:47;;;;;;;;;;;17.70;48.90;;;;;;5005933;28;19913;-68
2022/03/07 05:04:13;;;;;;;;;;;17.70;49.10;;;;;;5007704;28;20400;-66
2022/03/07 05:06:38;;;;;;;;;;;17.70;49.30;;;;;;5003003;28;19920;-68
2022/03/07 05:09:04;;;;;;;;;;;17.70;49.40;;;;;;5003144;28;19940;-69
2022/03/07 05:11:29;;;;;;;;;;;17.70;49.30;;;;;;5023648;28;19913;-66
2022/03/07 05:13:55;;;;;;;;;;;17.80;49.10;;;;;;5002457;28;19929;-64
2022/03/07 05:16:20;;;;;;;;;;;17.80;49.20;;;;;;5015423;28;19917;-63
2022/03/07 05:18:46;;;;;;;;;;;17.70;49.20;;;;;;5013080;28;21019;-67
2022/03/07 05:21:11;;;;;;;;;;;17.70;49.10;;;;;;5009912;28;20372;-68
2022/03/07 05:23:37;;;;;;;;;;;17.80;49.20;;;;;;5022611;28;19924;-66
2022/03/07 05:26:03;;;;;;;;;;;17.80;49.30;;;;;;5003386;28;19914;-63
2022/03/07 05:28:28;;;;;;;;;;;17.80;49.20;;;;;;5011076;28;19917;-59
2022/03/07 05:30:53;;;;;;;;;;;17.80;49.10;;;;;;5005851;28;20351;-65
2022/03/07 05:33:19;;;;;;;;;;;17.80;49.30;;;;;;5014454;28;19914;-56
2022/03/07 05:35:44;;;;;;;;;;;17.80;49.40;;;;;;5004910;28;19918;-61
2022/03/07 05:38:10;;;;;;;;;;;17.80;49.40;;;;;;5008765;28;20016;-66
2022/03/07 05:40:35;;;;;;;;;;;17.70;49.40;;;;;;5006623;28;19963;-66
2022/03/07 05:43:01;;;;;;;;;;;17.70;49.30;;;;;;5007011;28;19952;-65
2022/03/07 05:45:26;;;;;;;;;;;17.80;49.40;;;;;;5009618;28;19913;-64
2022/03/07 05:47:52;;;;;;;;;;;17.80;49.40;;;;;;5022129;28;19914;-64
2022/03/07 05:50:17;;;;;;;;;;;17.80;49.50;;;;;;5004007;28;19914;-63
2022/03/07 05:52:43;;;;;;;;;;;17.80;49.40;;;;;;4994638;28;19916;-64
2022/03/07 05:55:08;;;;;;;;;;;17.80;49.50;;;;;;5014722;28;20187;-65
2022/03/07 05:57:34;;;;;;;;;;;17.80;49.50;;;;;;5012896;28;19917;-62
2022/03/07 05:59:59;;;;;;;;;;;17.80;49.50;;;;;;5011424;28;19971;-62
2022/03/07 06:02:25;;;;;;;;;;;17.80;49.70;;;;;;5022252;28;19913;-65
2022/03/07 06:04:50;;;;;;;;;;;17.70;49.60;;;;;;5017898;28;19917;-65
2022/03/07 06:07:15;;;;;;;;;;;17.80;49.80;;;;;;5007276;28;19920;-61
2022/03/07 06:09:41;;;;;;;;;;;17.80;49.70;;;;;;5013612;28;19921;-66
2022/03/07 06:12:07;;;;;;;;;;;17.70;49.60;;;;;;5014941;28;19922;-65
2022/03/07 06:14:32;;;;;;;;;;;17.80;49.70;;;;;;5015018;28;20356;-65
2022/03/07 06:16:58;;;;;;;;;;;17.70;49.80;;;;;;5015229;28;19913;-65
2022/03/07 06:19:23;;;;;;;;;;;17.70;49.90;;;;;;5008714;28;19992;-64
2022/03/07 06:21:48;;;;;;;;;;;17.70;50.00;;;;;;5020326;28;19921;-64
2022/03/07 06:24:14;;;;;;;;;;;17.60;50.00;;;;;;5023075;28;19917;-62
2022/03/07 06:26:39;;;;;;;;;;;17.60;50.00;;;;;;5017484;28;19913;-60
2022/03/07 06:29:06;;;;;;;;;;;17.60;50.10;;;;;;5020349;28;19913;-57
2022/03/07 06:31:31;;;;;;;;;;;17.50;50.10;;;;;;5012279;28;19957;-54
2022/03/07 06:33:56;;;;;;;;;;;17.40;50.40;;;;;;5022886;28;20363;-58
2022/03/07 06:36:22;;;;;;;;;;;17.50;50.40;;;;;;4995387;28;21564;-66
2022/03/07 06:38:48;;;;;;;;;;;17.40;50.40;;;;;;5022311;28;19924;-57
2022/03/07 06:41:13;;;;;;;;;;;17.30;50.40;;;;;;5020482;28;19944;-63
2022/03/07 06:43:39;;;;;;;;;;;17.30;50.40;;;;;;5023820;28;20294;-63
2022/03/07 06:46:04;;;;;;;;;;;17.20;50.30;;;;;;5009014;28;19917;-67
2022/03/07 06:48:30;;;;;;;;;;;17.20;50.30;;;;;;5007053;28;19941;-61
2022/03/07 06:50:55;;;;;;;;;;;17.20;50.00;;;;;;5007474;28;19941;-66
2022/03/07 06:53:21;;;;;;;;;;;17.10;50.50;;;;;;5002846;28;19913;-68
2022/03/07 06:55:46;;;;;;;;;;;17.10;50.60;;;;;;5006567;28;22624;-66
2022/03/07 06:58:11;;;;;;;;;;;17.10;50.80;;;;;;5016710;28;19920;-65
2022/03/07 07:00:37;;;;;;;;;;;17.00;51.00;;;;;;5015882;28;19917;-67
2022/03/07 07:03:02;;;;;;;;;;;17.00;51.00;;;;;;5021559;28;19960;-66
2022/03/07 07:05:28;;;;;;;;;;;16.90;50.80;;;;;;5014349;28;19919;-66
2022/03/07 07:07:54;;;;;;;;;;;17.00;50.60;;;;;;5017484;28;20290;-63
2022/03/07 07:10:19;;;;;;;;;;;17.00;50.20;;;;;;5023183;28;19913;-64
2022/03/07 07:12:46;;;;;;;;;;;17.00;50.40;;;;;;5009455;28;20458;-65
2022/03/07 07:15:12;;;;;;;;;;;17.00;50.80;;;;;;5010003;28;20569;-62
2022/03/07 07:17:37;;;;;;;;;;;16.90;51.00;;;;;;5014079;28;19920;-66
2022/03/07 07:20:03;;;;;;;;;;;16.90;51.20;;;;;;5020098;28;20420;-65
2022/03/07 07:22:28;;;;;;;;;;;16.90;51.10;;;;;;5018637;28;19917;-65
2022/03/07 07:24:54;;;;;;;;;;;16.90;51.10;;;;;;4991560;28;19993;-61
2022/03/07 07:27:20;;;;;;;;;;;16.90;51.10;;;;;;5013623;28;19913;-67
2022/03/07 07:29:45;;;;;;;;;;;16.90;51.20;;;;;;5005895;28;20292;-59
2022/03/07 07:32:11;;;;;;;;;;;16.90;51.10;;;;;;5020157;28;19924;-61
2022/03/07 07:34:36;;;;;;;;;;;17.00;50.80;;;;;;5008267;28;19913;-64
2022/03/07 07:37:02;;;;;;;;;;;17.10;50.60;;;;;;5010977;28;19914;-66
2022/03/07 07:39:27;;;;;;;;;;;17.10;50.30;;;;;;5010434;28;19918;-65
2022/03/07 07:41:52;;;;;;;;;;;17.10;50.10;;;;;;5010313;28;19914;-64
2022/03/07 07:44:18;;;;;;;;;;;17.20;50.40;;;;;;5009415;28;20372;-66
2022/03/07 07:46:44;;;;;;;;;;;17.30;50.20;;;;;;5010753;28;19940;-65
2022/03/07 07:49:09;;;;;;;;;;;17.40;50.20;;;;;;5028255;28;20331;-63
2022/03/07 07:51:34;;;;;;;;;;;17.50;50.00;;;;;;5014036;28;19914;-61
2022/03/07 07:54:00;;;;;;;;;;;17.50;50.00;;;;;;5024443;28;19944;-66
2022/03/07 07:56:26;;;;;;;;;;;17.60;50.00;;;;;;5022110;28;19944;-64
2022/03/07 07:58:51;;;;;;;;;;;17.60;50.20;;;;;;4987887;28;19924;-63
2022/03/07 08:01:17;;;;;;;;;;;17.60;50.20;;;;;;4987218;28;19928;-65
2022/03/07 08:03:42;;;;;;;;;;;17.60;50.10;;;;;;5023934;28;20454;-65
2022/03/07 08:06:08;;;;;;;;;;;17.60;50.20;;;;;;5014758;28;19914;-66
2022/03/07 08:08:33;;;;;;;;;;;17.60;50.20;;;;;;5016759;28;19919;-65
2022/03/07 08:10:59;;;;;;;;;;;17.70;50.30;;;;;;5021948;28;20422;-66
2022/03/07 08:13:24;;;;;;;;;;;17.70;50.20;;;;;;5011660;28;19918;-68
2022/03/07 08:15:50;;;;;;;;;;;17.70;50.30;;;;;;5008790;28;19913;-64
2022/03/07 08:18:16;;;;;;;;;;;17.70;50.30;;;;;;5004576;28;20028;-65
2022/03/07 08:20:42;;;;;;;;;;;17.70;50.40;;;;;;5012564;28;19917;-66
2022/03/07 08:23:07;;;;;;;;;;;17.70;50.50;;;;;;5017262;28;20311;-66
2022/03/07 08:25:33;;;;;;;;;;;17.70;50.50;;;;;;5015896;28;19920;-66
2022/03/07 08:27:58;;;;;;;;;;;17.80;50.50;;;;;;5020749;28;19920;-64
2022/03/07 08:30:24;;;;;;;;;;;17.80;50.60;;;;;;5003529;28;19914;-63
2022/03/07 08:32:49;;;;;;;;;;;17.70;50.60;;;;;;5003455;28;19918;-65
2022/03/07 08:35:15;;;;;;;;;;;17.70;50.70;;;;;;5004038;28;19961;-65
2022/03/07 08:37:41;;;;;;;;;;;17.70;50.60;;;;;;4989259;28;19922;-65
2022/03/07 08:40:07;;;;;;;;;;;17.70;50.50;;;;;;5022874;28;20295;-65
2022/03/07 08:42:33;;;;;;;;;;;17.70;50.70;;;;;;5018700;28;19914;-66
2022/03/07 08:44:58;;;;;;;;;;;17.80;50.70;;;;;;5004261;28;19921;-67
2022/03/07 08:47:24;;;;;;;;;;;17.80;50.60;;;;;;5004177;28;19913;-66
2022/03/07 08:49:49;;;;;;;;;;;17.80;50.50;;;;;;5002934;28;19913;-66
2022/03/07 08:52:15;;;;;;;;;;;17.80;50.50;;;;;;5004617;28;20132;-61
2022/03/07 08:54:42;;;;;;;;;;;17.80;50.30;;;;;;5023255;28;20482;-64
2022/03/07 08:57:07;;;;;;;;;;;17.90;50.30;;;;;;5016589;28;20340;-66
2022/03/07 08:59:32;;;;;;;;;;;17.90;50.20;;;;;;5003360;28;19918;-66
2022/03/07 09:01:58;;;;;;;;;;;17.80;50.30;;;;;;5004363;28;20695;-64
2022/03/07 09:04:24;;;;;;;;;;;17.80;50.20;;;;;;5008890;28;19948;-65
2022/03/07 09:06:50;;;;;;;;;;;17.80;50.30;;;;;;5023723;28;20294;-63
2022/03/07 09:09:16;;;;;;;;;;;17.80;50.30;;;;;;5007691;28;19917;-63
2022/03/07 09:11:41;;;;;;;;;;;17.70;50.40;;;;;;4986862;28;19922;-67
2022/03/07 09:14:06;;;;;;;;;;;17.70;50.50;;;;;;5013314;28;19922;-66
2022/03/07 09:16:32;;;;;;;;;;;17.60;50.60;;;;;;5011142;28;20423;-64
2022/03/07 09:18:57;;;;;;;;;;;17.60;50.80;;;;;;5003140;28;19979;-66
2022/03/07 09:21:23;;;;;;;;;;;17.60;50.90;;;;;;5003220;28;19914;-66
2022/03/07 09:23:48;;;;;;;;;;;17.60;50.80;;;;;;5018123;28;19921;-65
2022/03/07 09:26:14;;;;;;;;;;;17.60;50.90;;;;;;5023022;28;20442;-67
2022/03/07 09:28:39;;;;;;;;;;;17.50;50.60;;;;;;5019292;28;19913;-66
2022/03/07 09:31:06;;;;;;;;;;;17.50;50.60;;;;;;5011319;28;19963;-65
2022/03/07 09:33:31;;;;;;;;;;;17.60;50.50;;;;;;5012680;28;20027;-65
2022/03/07 09:35:57;;;;;;;;;;;17.60;50.50;;;;;;5021168;28;20589;-64
2022/03/07 09:38:22;;;;;;;;;;;17.60;50.50;;;;;;5012608;28;19914;-65
2022/03/07 09:40:48;;;;;;;;;;;17.70;50.50;;;;;;5008055;28;19929;-66
2022/03/07 09:43:14;;;;;;;;;;;17.70;50.40;;;;;;5010504;28;19980;-66
2022/03/07 09:45:39;;;;;;;;;;;17.60;50.40;;;;;;5012714;28;19955;-66
2022/03/07 09:48:05;;;;;;;;;;;17.60;50.50;;;;;;5005240;28;19918;-66
2022/03/07 09:50:30;;;;;;;;;;;17.60;50.40;;;;;;5000976;28;19913;-67
2022/03/07 09:52:56;;;;;;;;;;;17.60;50.40;;;;;;5008592;28;19921;-67
2022/03/07 09:55:21;;;;;;;;;;;17.60;50.30;;;;;;5011405;28;20025;-64
2022/03/07 09:57:47;;;;;;;;;;;17.70;50.30;;;;;;5007058;28;20274;-66
2022/03/07 10:00:13;;;;;;;;;;;17.70;50.20;;;;;;5002759;28;19924;-65
2022/03/07 10:02:38;;;;;;;;;;;17.70;50.10;;;;;;5002183;28;19921;-65
2022/03/07 10:05:04;;;;;;;;;;;17.70;50.00;;;;;;4998696;28;19917;-65
2022/03/07 10:07:29;;;;;;;;;;;17.70;50.00;;;;;;5009328;28;19913;-65
2022/03/07 10:10:02;;;;;;;;;;;17.80;49.80;;;;;;5009515;28;19968;-65
2022/03/07 10:12:28;;;;;;;;;;;17.90;49.80;;;;;;5015948;28;21896;-65
2022/03/07 10:14:53;;;;;;;;;;;17.90;49.60;;;;;;5012933;28;19929;-65
2022/03/07 10:17:24;;;;;;;;;;;17.90;49.50;;;;;;5021584;28;20416;-65
2022/03/07 10:19:49;;;;;;;;;;;17.90;49.40;;;;;;5010681;28;19980;-65
2022/03/07 10:22:19;;;;;;;;;;;18.00;49.30;;;;;;5006340;28;19924;-66
2022/03/07 10:24:44;;;;;;;;;;;18.00;49.20;;;;;;5011730;28;19928;-64
2022/03/07 10:27:10;;;;;;;;;;;18.00;49.10;;;;;;5011726;28;19917;-65
2022/03/07 10:29:45;;;;;;;;;;;18.00;49.10;;;;;;5021092;28;19917;-67
2022/03/07 10:32:15;;;;;;;;;;;18.10;49.10;;;;;;5015442;28;19920;-63
2022/03/07 10:34:40;;;;;;;;;;;18.10;48.90;;;;;;5005872;28;19921;-65
2022/03/07 10:37:06;;;;;;;;;;;18.10;48.90;;;;;;5011189;28;20299;-65
2022/03/07 10:39:31;;;;;;;;;;;18.10;48.70;;;;;;5011635;28;19968;-65
2022/03/07 10:41:57;;;;;;;;;;;18.20;48.70;;;;;;5016685;28;20009;-66
2022/03/07 10:44:29;;;;;;;;;;;18.20;48.70;;;;;;5023724;28;19914;-64
2022/03/07 10:47:04;;;;;;;;;;;18.20;48.70;;;;;;5010731;28;19913;-66
2022/03/07 10:49:30;;;;;;;;;;;18.20;48.70;;;;;;5000602;28;20714;-67
2022/03/07 10:51:55;;;;;;;;;;;18.20;48.60;;;;;;5007612;28;19925;-66
2022/03/07 10:54:21;;;;;;;;;;;18.20;48.50;;;;;;5011055;28;19921;-65
2022/03/07 10:56:50;;;;;;;;;;;18.20;48.50;;;;;;5022339;28;19910;-63
2022/03/07 10:59:24;;;;;;;;;;;18.20;48.50;;;;;;5020569;28;19919;-66
2022/03/07 11:01:56;;;;;;;;;;;18.20;48.50;;;;;;5006635;28;19971;-68
2022/03/07 11:04:22;;;;;;;;;;;18.20;48.50;;;;;;5012078;28;19985;-66
2022/03/07 11:06:47;;;;;;;;;;;18.20;48.50;;;;;;5015850;28;20029;-68
2022/03/07 11:09:13;;;;;;;;;;;18.20;48.50;;;;;;4998638;28;19948;-65
2022/03/07 11:11:38;;;;;;;;;;;18.20;48.50;;;;;;5011425;28;19913;-68
2022/03/07 11:14:04;;;;;;;;;;;18.20;48.50;;;;;;5004182;28;19925;-65
2022/03/07 11:16:29;;;;;;;;;;;18.20;48.60;;;;;;4993890;28;19987;-65
2022/03/07 11:18:55;;;;;;;;;;;18.20;48.70;;;;;;5024987;28;20281;-65
2022/03/07 11:21:21;;;;;;;;;;;18.20;48.70;;;;;;5013383;28;20300;-64
2022/03/07 11:23:47;;;;;;;;;;;18.20;48.70;;;;;;5018633;28;19995;-65
2022/03/07 11:26:12;;;;;;;;;;;18.10;48.70;;;;;;5006091;28;20528;-65
2022/03/07 11:28:38;;;;;;;;;;;18.10;48.70;;;;;;5006437;28;19914;-66
2022/03/07 11:31:03;;;;;;;;;;;18.10;48.70;;;;;;5003227;28;19949;-66
2022/03/07 11:33:37;;;;;;;;;;;18.00;48.80;;;;;;5020095;28;19939;-67
2022/03/07 11:36:03;;;;;;;;;;;18.00;48.90;;;;;;5022071;28;19919;-66
2022/03/07 11:38:31;;;;;;;;;;;18.00;48.80;;;;;;5009749;28;19914;-66
2022/03/07 11:41:07;;;;;;;;;;;18.00;48.80;;;;;;5013522;28;20363;-66
2022/03/07 11:43:33;;;;;;;;;;;18.00;48.80;;;;;;5004779;28;19921;-67
2022/03/07 11:45:59;;;;;;;;;;;18.00;48.80;;;;;;5017858;28;19913;-66
2022/03/07 11:48:25;;;;;;;;;;;18.00;48.90;;;;;;4997685;28;20107;-66
2022/03/07 11:50:50;;;;;;;;;;;18.00;48.90;;;;;;5016880;28;20020;-68
2022/03/07 11:53:16;;;;;;;;;;;18.00;48.90;;;;;;5021618;28;20287;-67
2022/03/07 11:55:42;;;;;;;;;;;18.00;49.00;;;;;;5003615;28;19917;-66
2022/03/07 11:58:08;;;;;;;;;;;18.00;49.00;;;;;;5008703;28;19914;-65
2022/03/07 12:00:35;;;;;;;;;;;17.90;49.00;;;;;;5012289;28;20436;-66
2022/03/07 12:03:14;;;;;;;;;;;18.00;49.20;;;;;;5000758;28;19914;-67
2022/03/07 12:05:39;;;;;;;;;;;18.00;49.20;;;;;;5006245;28;19924;-66
2022/03/07 12:08:06;;;;;;;;;;;17.90;49.10;;;;;;5016162;28;19917;-67
2022/03/07 12:10:31;;;;;;;;;;;17.90;49.30;;;;;;5016913;28;20543;-65
2022/03/07 12:13:04;;;;;;;;;;;17.90;49.00;;;;;;5022312;28;19921;-65
2022/03/07 12:15:29;;;;;;;;;;;17.90;49.10;;;;;;5022909;28;19917;-65
2022/03/07 12:17:56;;;;;;;;;;;17.90;49.20;;;;;;5017407;28;20394;-68
2022/03/07 12:20:21;;;;;;;;;;;17.90;49.20;;;;;;5018115;28;19925;-66
2022/03/07 12:22:47;;;;;;;;;;;17.80;49.20;;;;;;5011873;28;19945;-65
2022/03/07 12:25:12;;;;;;;;;;;17.90;49.40;;;;;;5005893;28;19913;-65
2022/03/07 12:27:39;;;;;;;;;;;17.90;49.40;;;;;;5006562;28;20604;-67
2022/03/07 12:30:08;;;;;;;;;;;17.90;49.40;;;;;;5021013;28;19924;-67
2022/03/07 12:32:34;;;;;;;;;;;17.90;49.50;;;;;;5008288;28;20384;-67
2022/03/07 12:34:59;;;;;;;;;;;17.90;49.30;;;;;;5011923;28;19940;-67
2022/03/07 12:37:28;;;;;;;;;;;17.90;49.20;;;;;;5004581;28;20395;-66
2022/03/07 12:39:54;;;;;;;;;;;17.90;49.20;;;;;;5008000;28;19917;-64
2022/03/07 12:42:20;;;;;;;;;;;17.90;49.20;;;;;;5004183;28;19929;-64
2022/03/07 12:44:46;;;;;;;;;;;17.90;49.30;;;;;;5022920;28;20012;-64
2022/03/07 12:47:12;;;;;;;;;;;17.90;49.30;;;;;;5009417;28;20012;-66
2022/03/07 12:49:37;;;;;;;;;;;17.90;49.20;;;;;;5003551;28;19914;-66
2022/03/07 12:52:05;;;;;;;;;;;17.90;49.20;;;;;;5008641;28;19914;-65
2022/03/07 12:54:32;;;;;;;;;;;17.90;49.00;;;;;;5016930;28;19927;-64
2022/03/07 12:56:58;;;;;;;;;;;17.90;49.00;;;;;;5018923;28;19921;-67
2022/03/07 12:59:27;;;;;;;;;;;17.90;49.00;;;;;;5007840;28;19918;-65
2022/03/07 13:01:53;;;;;;;;;;;17.80;49.00;;;;;;5008149;28;19945;-65
2022/03/07 13:04:20;;;;;;;;;;;17.90;49.10;;;;;;5003829;28;19953;-66
2022/03/07 13:06:48;;;;;;;;;;;17.80;49.00;;;;;;5003566;28;19918;-66
2022/03/07 13:09:14;;;;;;;;;;;17.90;49.00;;;;;;5015294;28;19967;-65
2022/03/07 13:11:41;;;;;;;;;;;17.90;49.00;;;;;;5008862;28;19914;-66
2022/03/07 13:14:06;;;;;;;;;;;17.90;49.00;;;;;;5002897;28;20447;-68
2022/03/07 13:16:35;;;;;;;;;;;17.90;49.00;;;;;;5003083;28;19918;-66
2022/03/07 13:19:02;;;;;;;;;;;17.90;49.00;;;;;;5007826;28;19917;-67
2022/03/07 13:21:30;;;;;;;;;;;17.90;49.00;;;;;;4993442;28;20013;-65
2022/03/07 13:23:56;;;;;;;;;;;17.80;48.90;;;;;;5017805;28;20713;-66
2022/03/07 13:26:23;;;;;;;;;;;17.90;49.10;;;;;;5014658;28;20307;-66
2022/03/07 13:28:49;;;;;;;;;;;17.80;49.00;;;;;;4996934;28;20405;-66
2022/03/07 13:31:15;;;;;;;;;;;17.90;49.10;;;;;;4993570;28;19914;-65
2022/03/07 13:33:40;;;;;;;;;;;17.90;49.10;;;;;;5004228;28;19959;-66
2022/03/07 13:36:09;;;;;;;;;;;17.90;49.00;;;;;;5018883;28;19914;-65
2022/03/07 13:38:36;;;;;;;;;;;17.90;49.00;;;;;;5017598;28;19928;-67
2022/03/07 13:41:05;;;;;;;;;;;17.90;49.00;;;;;;5013160;28;20009;-65
2022/03/07 13:43:31;;;;;;;;;;;17.90;49.10;;;;;;5006619;28;20005;-65
2022/03/07 13:45:56;;;;;;;;;;;17.90;49.10;;;;;;5014506;28;19913;-66
2022/03/07 13:48:22;;;;;;;;;;;17.90;49.10;;;;;;5005426;28;19913;-64
2022/03/07 13:50:49;;;;;;;;;;;17.80;49.00;;;;;;4989934;28;20004;-65
2022/03/07 13:53:15;;;;;;;;;;;17.90;49.10;;;;;;5012144;28;19913;-65
2022/03/07 13:55:42;;;;;;;;;;;17.90;49.10;;;;;;5007490;28;19913;-65
2022/03/07 13:58:18;;;;;;;;;;;17.80;49.00;;;;;;5002910;28;19917;-65
2022/03/07 14:00:43;;;;;;;;;;;17.80;49.00;;;;;;5013223;28;19971;-66
2022/03/07 14:03:08;;;;;;;;;;;17.80;49.00;;;;;;5013461;28;20461;-65
2022/03/07 14:05:46;;;;;;;;;;;17.80;49.00;;;;;;5002627;28;19940;-67
2022/03/07 14:08:12;;;;;;;;;;;17.80;49.00;;;;;;5010402;28;19917;-63